createdAt,value
2023-05-19T00:00:02.020Z,249.46
2023-05-19T00:01:02.007Z,249.37
2023-05-19T00:02:02.065Z,249.35
2023-05-19T00:03:02.173Z,248.88
2023-05-19T00:04:02.180Z,248.54
2023-05-19T00:05:02.210Z,248.80
2023-05-19T00:06:02.332Z,249.55
2023-05-19T00:07:02.356Z,248.88
2023-05-19T00:08:02.412Z,247.78
2023-05-19T00:09:02.489Z,248.97
2023-05-19T00:10:02.551Z,248.98
2023-05-19T00:11:02.628Z,249.05
2023-05-19T00:12:02.623Z,249.45
2023-05-19T00:13:02.685Z,248.70
2023-05-19T00:14:02.753Z,249.18
2023-05-19T00:15:02.813Z,249.54
2023-05-19T00:16:02.912Z,248.82
2023-05-19T00:17:02.927Z,249.25
2023-05-19T00:18:03.081Z,249.59
2023-05-19T00:19:03.086Z,249.29
2023-05-19T00:20:03.040Z,249.91
2023-05-19T00:21:03.097Z,249.33
2023-05-19T00:22:03.118Z,248.32
2023-05-19T00:23:03.163Z,248.91
2023-05-19T00:24:03.227Z,248.93
2023-05-19T00:25:03.296Z,249.36
2023-05-19T00:26:03.339Z,248.41
2023-05-19T00:27:03.405Z,249.52
2023-05-19T00:28:03.462Z,248.01
2023-05-19T00:29:03.553Z,248.94
2023-05-19T00:30:03.612Z,248.74
2023-05-19T00:31:03.658Z,248.97
2023-05-19T00:32:03.752Z,248.92
2023-05-19T00:33:03.780Z,248.83
2023-05-19T00:34:03.823Z,249.24
2023-05-19T00:35:03.897Z,248.96
2023-05-19T00:36:04.004Z,248.92
2023-05-19T00:37:04.033Z,249.64
2023-05-19T00:38:04.089Z,248.95
2023-05-19T00:39:04.151Z,249.17
2023-05-19T00:40:04.157Z,249.25
2023-05-19T00:41:04.157Z,249.47
2023-05-19T00:42:04.151Z,249.42
2023-05-19T00:43:04.160Z,249.95
2023-05-19T00:44:04.165Z,249.85
2023-05-19T00:45:04.170Z,249.19
2023-05-19T00:46:04.179Z,249.33
2023-05-19T00:47:04.202Z,249.03
2023-05-19T00:48:04.238Z,249.00
2023-05-19T00:49:04.177Z,249.24
2023-05-19T00:50:04.248Z,248.83
2023-05-19T00:51:04.467Z,248.84
2023-05-19T00:52:04.270Z,249.42
2023-05-19T00:53:04.329Z,248.77
2023-05-19T00:54:04.370Z,248.90
2023-05-19T00:55:04.386Z,248.82
2023-05-19T00:56:04.447Z,248.69
2023-05-19T00:57:04.460Z,249.10
2023-05-19T00:58:04.500Z,249.37
2023-05-19T00:59:04.550Z,248.15
2023-05-19T01:00:04.601Z,248.71
2023-05-19T01:01:05.199Z,248.53
2023-05-19T01:02:04.669Z,248.94
2023-05-19T01:03:04.730Z,248.84
2023-05-19T01:04:04.794Z,249.07
2023-05-19T01:05:04.748Z,249.06
2023-05-19T01:06:04.754Z,249.14
2023-05-19T01:07:04.774Z,248.57
2023-05-19T01:08:04.859Z,249.19
2023-05-19T01:09:04.923Z,248.96
2023-05-19T01:10:04.992Z,248.41
2023-05-19T01:11:05.070Z,248.28
2023-05-19T01:12:05.122Z,248.54
2023-05-19T01:13:05.197Z,249.10
2023-05-19T01:14:05.261Z,248.36
2023-05-19T01:15:05.344Z,249.06
2023-05-19T01:16:05.440Z,248.57
2023-05-19T01:17:05.487Z,249.73
2023-05-19T01:18:05.545Z,248.84
2023-05-19T01:19:05.662Z,249.52
2023-05-19T01:20:05.650Z,249.44
2023-05-19T01:21:05.713Z,248.52
2023-05-19T01:22:05.786Z,249.19
2023-05-19T01:23:05.826Z,248.67
2023-05-19T01:24:05.835Z,248.78
2023-05-19T01:25:05.829Z,248.96
2023-05-19T01:26:05.858Z,249.30
2023-05-19T01:27:05.861Z,249.24
2023-05-19T01:28:05.861Z,249.46
2023-05-19T01:29:05.888Z,248.72
2023-05-19T01:30:05.895Z,249.65
2023-05-19T01:31:05.901Z,249.01
2023-05-19T01:32:05.987Z,249.00
2023-05-19T01:33:05.930Z,248.72
2023-05-19T01:34:05.915Z,248.81
2023-05-19T01:35:05.917Z,248.98
2023-05-19T01:36:05.918Z,248.72
2023-05-19T01:37:05.968Z,247.95
2023-05-19T01:38:06.011Z,248.87
2023-05-19T01:39:06.074Z,248.86
2023-05-19T01:40:06.135Z,248.57
2023-05-19T01:41:06.173Z,248.95
2023-05-19T01:42:06.194Z,248.65
2023-05-19T01:43:06.209Z,248.90
2023-05-19T01:44:06.230Z,248.52
2023-05-19T01:45:06.259Z,248.23
2023-05-19T01:46:06.346Z,249.38
2023-05-19T01:47:06.275Z,248.92
2023-05-19T01:48:07.783Z,249.20
2023-05-19T01:49:06.309Z,249.09
2023-05-19T01:50:06.309Z,248.68
2023-05-19T01:51:06.321Z,248.79
2023-05-19T01:52:06.313Z,248.22
2023-05-19T01:53:06.318Z,248.54
2023-05-19T01:54:06.320Z,248.61
2023-05-19T01:55:06.333Z,248.51
2023-05-19T01:56:06.361Z,247.91
2023-05-19T01:57:06.376Z,247.87
2023-05-19T01:58:06.363Z,248.73
2023-05-19T01:59:06.376Z,249.34
2023-05-19T02:00:06.397Z,248.06
2023-05-19T02:01:06.412Z,247.65
2023-05-19T02:02:06.393Z,248.26
2023-05-19T02:03:06.456Z,248.92
2023-05-19T02:04:06.440Z,249.35
2023-05-19T02:05:06.405Z,249.22
2023-05-19T02:06:06.431Z,249.38
2023-05-19T02:07:06.420Z,249.45
2023-05-19T02:08:06.413Z,249.61
2023-05-19T02:09:06.419Z,249.66
2023-05-19T02:10:06.436Z,250.13
2023-05-19T02:11:06.452Z,249.43
2023-05-19T02:12:06.448Z,248.57
2023-05-19T02:13:06.458Z,248.65
2023-05-19T02:14:06.459Z,248.32
2023-05-19T02:15:06.499Z,248.68
2023-05-19T02:16:06.497Z,248.56
2023-05-19T02:17:06.491Z,248.66
2023-05-19T02:18:06.531Z,248.78
2023-05-19T02:19:06.529Z,249.10
2023-05-19T02:20:06.533Z,249.10
2023-05-19T02:21:06.538Z,249.21
2023-05-19T02:22:06.544Z,248.41
2023-05-19T02:23:06.566Z,248.43
2023-05-19T02:24:06.572Z,248.87
2023-05-19T02:25:06.576Z,248.44
2023-05-19T02:26:06.606Z,248.53
2023-05-19T02:27:06.671Z,248.24
2023-05-19T02:28:06.638Z,248.78
2023-05-19T02:29:06.657Z,248.49
2023-05-19T02:30:06.687Z,248.25
2023-05-19T02:31:06.744Z,248.30
2023-05-19T02:32:06.821Z,248.12
2023-05-19T02:33:06.878Z,247.79
2023-05-19T02:34:06.866Z,248.11
2023-05-19T02:35:06.900Z,247.79
2023-05-19T02:36:06.962Z,247.51
2023-05-19T02:37:06.995Z,248.24
2023-05-19T02:38:07.026Z,248.23
2023-05-19T02:39:07.029Z,248.32
2023-05-19T02:40:07.043Z,248.49
2023-05-19T02:41:07.067Z,248.40
2023-05-19T02:42:07.074Z,248.96
2023-05-19T02:43:07.068Z,249.64
2023-05-19T02:44:07.084Z,248.45
2023-05-19T02:45:07.090Z,248.66
2023-05-19T02:46:07.130Z,248.00
2023-05-19T02:47:07.124Z,248.70
2023-05-19T02:48:07.121Z,248.02
2023-05-19T02:49:07.138Z,248.15
2023-05-19T02:50:07.165Z,248.21
2023-05-19T02:51:07.155Z,248.39
2023-05-19T02:52:07.163Z,248.09
2023-05-19T02:53:07.175Z,249.19
2023-05-19T02:54:07.174Z,249.25
2023-05-19T02:55:07.184Z,248.20
2023-05-19T02:56:07.210Z,248.50
2023-05-19T02:57:07.199Z,247.94
2023-05-19T02:58:07.204Z,247.52
2023-05-19T02:59:07.220Z,247.95
2023-05-19T03:00:07.232Z,248.07
2023-05-19T03:01:07.238Z,247.05
2023-05-19T03:02:07.370Z,240.74
2023-05-19T03:03:07.337Z,236.47
2023-05-19T03:04:07.314Z,233.26
2023-05-19T03:05:07.257Z,227.78
2023-05-19T03:06:07.266Z,224.58
2023-05-19T03:07:07.262Z,221.95
2023-05-19T03:08:07.273Z,220.10
2023-05-19T03:09:07.288Z,217.96
2023-05-19T03:10:07.289Z,215.02
2023-05-19T03:11:07.314Z,213.66
2023-05-19T03:12:07.334Z,211.48
2023-05-19T03:13:07.325Z,209.06
2023-05-19T03:14:07.347Z,206.12
2023-05-19T03:15:07.352Z,206.18
2023-05-19T03:16:07.411Z,203.39
2023-05-19T03:17:07.413Z,200.47
2023-05-19T03:18:07.456Z,197.17
2023-05-19T03:19:07.435Z,194.69
2023-05-19T03:20:07.465Z,193.11
2023-05-19T03:21:07.504Z,192.66
2023-05-19T03:22:07.515Z,190.79
2023-05-19T03:23:07.536Z,188.51
2023-05-19T03:24:07.570Z,185.80
2023-05-19T03:25:07.593Z,185.17
2023-05-19T03:26:07.625Z,182.21
2023-05-19T03:27:07.644Z,182.25
2023-05-19T03:28:07.669Z,181.60
2023-05-19T03:29:07.699Z,178.40
2023-05-19T03:30:07.726Z,176.09
2023-05-19T03:31:07.760Z,175.07
2023-05-19T03:32:07.815Z,175.98
2023-05-19T03:33:07.875Z,175.24
2023-05-19T03:34:07.822Z,172.21
2023-05-19T03:35:07.841Z,170.73
2023-05-19T03:36:07.856Z,169.69
2023-05-19T03:37:07.909Z,168.07
2023-05-19T03:38:07.970Z,166.38
2023-05-19T03:39:08.057Z,166.16
2023-05-19T03:40:08.141Z,165.28
2023-05-19T03:41:08.244Z,163.97
2023-05-19T03:42:08.325Z,162.64
2023-05-19T03:43:08.415Z,162.72
2023-05-19T03:44:08.498Z,161.47
2023-05-19T03:45:08.595Z,159.92
2023-05-19T03:46:08.739Z,159.11
2023-05-19T03:47:08.764Z,158.82
2023-05-19T03:48:08.875Z,158.97
2023-05-19T03:49:08.943Z,157.82
2023-05-19T03:50:09.028Z,156.06
2023-05-19T03:51:09.103Z,156.10
2023-05-19T03:52:09.191Z,155.66
2023-05-19T03:53:09.281Z,155.61
2023-05-19T03:54:09.361Z,154.23
2023-05-19T03:55:09.460Z,153.86
2023-05-19T03:56:09.548Z,155.06
2023-05-19T03:57:09.639Z,152.20
2023-05-19T03:58:09.733Z,152.30
2023-05-19T03:59:09.823Z,153.06
2023-05-19T04:00:09.919Z,152.46
2023-05-19T04:01:10.008Z,152.27
2023-05-19T04:02:10.157Z,151.67
2023-05-19T04:03:10.230Z,151.76
2023-05-19T04:04:10.208Z,151.82
2023-05-19T04:05:10.184Z,151.22
2023-05-19T04:06:10.203Z,151.72
2023-05-19T04:07:10.220Z,149.48
2023-05-19T04:08:10.249Z,151.71
2023-05-19T04:09:10.275Z,149.87
2023-05-19T04:10:10.308Z,149.31
2023-05-19T04:11:10.328Z,148.77
2023-05-19T04:12:10.346Z,149.53
2023-05-19T04:13:10.373Z,147.95
2023-05-19T04:14:10.401Z,149.34
2023-05-19T04:15:10.420Z,148.40
2023-05-19T04:16:10.549Z,146.55
2023-05-19T04:17:10.597Z,146.85
2023-05-19T04:18:10.707Z,145.55
2023-05-19T04:19:10.822Z,147.97
2023-05-19T04:20:10.850Z,144.82
2023-05-19T04:21:10.957Z,146.14
2023-05-19T04:22:11.050Z,146.92
2023-05-19T04:23:11.134Z,146.13
2023-05-19T04:24:11.224Z,145.39
2023-05-19T04:25:11.325Z,146.11
2023-05-19T04:26:11.424Z,146.30
2023-05-19T04:27:11.524Z,145.25
2023-05-19T04:28:11.616Z,144.03
2023-05-19T04:29:11.714Z,145.28
2023-05-19T04:30:11.808Z,144.68
2023-05-19T04:31:11.968Z,142.67
2023-05-19T04:32:12.035Z,144.81
2023-05-19T04:33:54.915Z,25.00
2023-05-19T04:34:54.876Z,25.00
2023-05-19T04:35:54.848Z,25.00
2023-05-19T04:36:54.817Z,25.00
2023-05-19T04:37:54.812Z,25.00
2023-05-19T04:38:54.776Z,26.71
2023-05-19T04:39:54.738Z,25.00
2023-05-19T04:40:54.684Z,25.72
2023-05-19T04:41:54.649Z,29.09
2023-05-19T04:42:54.620Z,27.00
2023-05-19T04:43:54.594Z,27.29
2023-05-19T04:44:54.576Z,26.30
2023-05-19T04:45:54.551Z,26.99
2023-05-19T04:46:54.704Z,28.92
2023-05-19T04:47:54.520Z,28.65
2023-05-19T04:48:54.460Z,29.13
2023-05-19T04:49:54.437Z,28.29
2023-05-19T04:50:54.416Z,31.13
2023-05-19T04:51:55.905Z,26.69
2023-05-19T04:52:54.359Z,29.20
2023-05-19T04:53:54.338Z,27.93
2023-05-19T04:54:54.313Z,29.82
2023-05-19T04:55:54.294Z,30.58
2023-05-19T04:56:54.267Z,29.90
2023-05-19T04:57:54.240Z,31.08
2023-05-19T04:58:54.209Z,32.67
2023-05-19T04:59:54.193Z,28.56
2023-05-19T05:00:54.174Z,30.89
2023-05-19T05:01:54.168Z,31.92
2023-05-19T05:02:54.132Z,31.35
2023-05-19T05:03:54.108Z,32.14
2023-05-19T05:04:54.038Z,29.24
2023-05-19T05:05:54.024Z,29.50
2023-05-19T05:06:53.974Z,34.62
2023-05-19T05:07:53.942Z,33.09
2023-05-19T05:08:53.907Z,34.79
2023-05-19T05:09:53.877Z,33.67
2023-05-19T05:10:53.856Z,33.60
2023-05-19T05:11:53.844Z,35.09
2023-05-19T05:12:53.860Z,36.23
2023-05-19T05:13:53.856Z,31.50
2023-05-19T05:14:53.847Z,31.04
2023-05-19T05:15:53.886Z,32.95
2023-05-19T05:16:53.893Z,33.69
2023-05-19T05:17:53.918Z,30.02
2023-05-19T05:18:53.921Z,30.43
2023-05-19T05:19:53.890Z,31.97
2023-05-19T05:20:53.903Z,33.62
2023-05-19T05:21:53.895Z,31.77
2023-05-19T05:22:53.907Z,34.23
2023-05-19T05:23:53.928Z,31.25
2023-05-19T05:24:53.923Z,34.20
2023-05-19T05:25:53.932Z,33.72
2023-05-19T05:26:53.940Z,36.93
2023-05-19T05:27:53.967Z,36.05
2023-05-19T05:28:53.967Z,35.10
2023-05-19T05:29:53.972Z,34.45
2023-05-19T05:30:53.978Z,34.49
2023-05-19T05:31:54.011Z,34.25
2023-05-19T05:32:54.066Z,35.71
2023-05-19T05:33:54.020Z,35.47
2023-05-19T05:34:54.030Z,35.89
2023-05-19T05:35:54.044Z,34.32
2023-05-19T05:36:54.051Z,34.76
2023-05-19T05:37:54.056Z,37.44
2023-05-19T05:38:54.060Z,36.09
2023-05-19T05:39:54.097Z,37.85
2023-05-19T05:40:54.086Z,38.48
2023-05-19T05:41:54.077Z,38.75
2023-05-19T05:42:54.010Z,38.83
2023-05-19T05:43:53.980Z,39.58
2023-05-19T05:44:53.965Z,38.51
2023-05-19T05:45:53.967Z,42.92
2023-05-19T05:46:53.901Z,43.98
2023-05-19T05:47:53.962Z,39.93
2023-05-19T05:48:53.861Z,41.03
2023-05-19T05:49:53.832Z,39.71
2023-05-19T05:50:53.792Z,38.71
2023-05-19T05:52:04.867Z,40.66
2023-05-19T05:52:54.747Z,40.78
2023-05-19T05:53:53.726Z,41.15
2023-05-19T05:54:53.707Z,42.37
2023-05-19T05:55:53.688Z,43.27
2023-05-19T05:56:53.650Z,44.60
2023-05-19T05:57:53.657Z,46.05
2023-05-19T05:58:53.601Z,44.87
2023-05-19T05:59:53.604Z,45.67
2023-05-19T06:00:53.594Z,47.81
2023-05-19T06:01:53.605Z,48.89
2023-05-19T06:02:53.593Z,47.68
2023-05-19T06:03:53.477Z,50.37
2023-05-19T06:04:53.428Z,49.48
2023-05-19T06:05:53.502Z,49.23
2023-05-19T06:06:53.401Z,45.33
2023-05-19T06:07:53.361Z,45.47
2023-05-19T06:08:53.331Z,50.34
2023-05-19T06:09:53.321Z,48.68
2023-05-19T06:10:53.284Z,50.36
2023-05-19T06:11:53.269Z,51.05
2023-05-19T06:12:53.240Z,51.33
2023-05-19T06:13:53.244Z,54.21
2023-05-19T06:14:53.230Z,51.42
2023-05-19T06:15:53.297Z,54.20
2023-05-19T06:16:53.253Z,53.22
2023-05-19T06:17:53.272Z,55.60
2023-05-19T06:18:53.273Z,54.12
2023-05-19T06:19:53.251Z,54.02
2023-05-19T06:20:53.243Z,54.54
2023-05-19T06:21:53.249Z,56.38
2023-05-19T06:22:53.284Z,54.57
2023-05-19T06:23:53.264Z,59.84
2023-05-19T06:24:53.261Z,58.64
2023-05-19T06:25:53.286Z,59.51
2023-05-19T06:26:53.255Z,63.14
2023-05-19T06:27:53.257Z,64.73
2023-05-19T06:28:53.266Z,63.02
2023-05-19T06:29:53.262Z,63.44
2023-05-19T06:30:53.245Z,60.21
2023-05-19T06:31:53.526Z,64.99
2023-05-19T06:32:53.268Z,65.76
2023-05-19T06:33:53.256Z,68.17
2023-05-19T06:34:53.245Z,66.51
2023-05-19T06:35:53.237Z,70.18
2023-05-19T06:36:53.254Z,67.05
2023-05-19T06:37:53.254Z,67.14
2023-05-19T06:38:53.222Z,71.56
2023-05-19T06:39:53.236Z,67.92
2023-05-19T06:40:53.216Z,74.21
2023-05-19T06:41:53.211Z,65.88
2023-05-19T06:42:53.202Z,71.05
2023-05-19T06:43:53.199Z,71.14
2023-05-19T06:44:53.185Z,68.49
2023-05-19T06:45:53.188Z,68.13
2023-05-19T06:46:53.213Z,71.52
2023-05-19T06:47:53.219Z,68.85
2023-05-19T06:48:53.174Z,66.43
2023-05-19T06:49:53.162Z,67.47
2023-05-19T06:50:53.169Z,68.60
2023-05-19T06:51:53.180Z,66.62
2023-05-19T06:52:53.162Z,68.34
2023-05-19T06:53:53.165Z,68.57
2023-05-19T06:54:53.164Z,71.90
2023-05-19T06:55:59.279Z,80.78
2023-05-19T06:56:54.135Z,81.13
2023-05-19T06:57:53.103Z,87.61
2023-05-19T06:58:53.077Z,98.75
2023-05-19T06:59:53.046Z,113.03
2023-05-19T07:00:53.013Z,141.68
2023-05-19T07:01:53.105Z,145.47
2023-05-19T07:02:53.029Z,147.14
2023-05-19T07:03:53.068Z,149.49
2023-05-19T07:04:52.868Z,154.99
2023-05-19T07:05:52.848Z,154.66
2023-05-19T07:06:52.809Z,155.51
2023-05-19T07:07:52.781Z,157.78
2023-05-19T07:08:52.721Z,158.03
2023-05-19T07:09:52.694Z,158.19
2023-05-19T07:10:52.674Z,159.03
2023-05-19T07:11:52.616Z,160.59
2023-05-19T07:12:52.565Z,163.60
2023-05-19T07:13:52.519Z,168.98
2023-05-19T07:14:52.470Z,170.56
2023-05-19T07:15:52.475Z,172.37
2023-05-19T07:16:52.423Z,171.45
2023-05-19T07:17:52.443Z,172.85
2023-05-19T07:18:52.480Z,176.35
2023-05-19T07:19:52.522Z,179.57
2023-05-19T07:20:52.427Z,181.26
2023-05-19T07:21:52.473Z,181.54
2023-05-19T07:22:52.441Z,182.03
2023-05-19T07:23:52.389Z,192.44
2023-05-19T07:24:52.330Z,224.96
2023-05-19T07:25:52.305Z,248.54
2023-05-19T07:26:52.269Z,266.02
2023-05-19T07:27:52.212Z,249.60
2023-05-19T07:28:52.187Z,249.21
2023-05-19T07:29:52.143Z,300.81
2023-05-19T07:30:52.129Z,322.88
2023-05-19T07:31:52.124Z,324.13
2023-05-19T07:32:52.056Z,327.96
2023-05-19T07:33:54.522Z,334.12
2023-05-19T07:34:51.951Z,345.82
2023-05-19T07:35:51.921Z,367.40
2023-05-19T07:36:51.882Z,350.32
2023-05-19T07:37:51.854Z,330.32
2023-05-19T07:38:51.863Z,314.47
2023-05-19T07:39:51.787Z,290.86
2023-05-19T07:40:51.743Z,270.18
2023-05-19T07:41:51.688Z,251.09
2023-05-19T07:42:51.644Z,247.92
2023-05-19T07:43:51.611Z,248.81
2023-05-19T07:44:51.580Z,247.71
2023-05-19T07:45:51.542Z,250.00
2023-05-19T07:46:51.487Z,245.12
2023-05-19T07:47:51.464Z,238.14
2023-05-19T07:48:51.409Z,234.48
2023-05-19T07:49:52.095Z,228.30
2023-05-19T07:50:51.326Z,222.47
2023-05-19T07:51:51.288Z,219.21
2023-05-19T07:52:51.230Z,219.14
2023-05-19T07:53:51.187Z,215.49
2023-05-19T07:54:51.164Z,208.36
2023-05-19T07:55:51.119Z,202.56
2023-05-19T07:56:51.169Z,201.89
2023-05-19T07:57:51.051Z,183.92
2023-05-19T07:58:51.006Z,167.53
2023-05-19T07:59:50.943Z,156.02
2023-05-19T08:00:50.903Z,136.53
2023-05-19T08:01:50.868Z,125.62
2023-05-19T08:02:50.911Z,119.27
2023-05-19T08:03:50.880Z,113.80
2023-05-19T08:04:50.749Z,108.07
2023-05-19T08:05:50.687Z,102.94
2023-05-19T08:06:50.655Z,99.51
2023-05-19T08:07:50.655Z,95.56
2023-05-19T08:08:50.571Z,91.36
2023-05-19T08:09:50.523Z,90.04
2023-05-19T08:10:50.487Z,87.09
2023-05-19T08:11:50.460Z,85.00
2023-05-19T08:12:50.423Z,81.94
2023-05-19T08:13:50.372Z,79.89
2023-05-19T08:14:50.343Z,78.26
2023-05-19T08:15:50.347Z,74.78
2023-05-19T08:16:50.376Z,72.31
2023-05-19T08:17:50.419Z,70.45
2023-05-19T08:18:50.464Z,67.06
2023-05-19T08:19:50.443Z,62.51
2023-05-19T08:20:50.479Z,60.16
2023-05-19T08:21:50.500Z,54.88
2023-05-19T08:22:50.520Z,51.95
2023-05-19T08:23:50.512Z,50.56
2023-05-19T08:24:50.531Z,48.72
2023-05-19T08:25:50.546Z,44.80
2023-05-19T08:26:50.565Z,42.37
2023-05-19T08:27:50.572Z,40.09
2023-05-19T08:28:50.573Z,39.03
2023-05-19T08:29:50.542Z,35.31
2023-05-19T08:30:50.570Z,33.43
2023-05-19T08:31:50.656Z,30.70
2023-05-19T08:32:50.608Z,28.44
2023-05-19T08:33:50.568Z,28.31
2023-05-19T08:34:50.557Z,26.00
2023-05-19T08:35:50.543Z,26.16
2023-05-19T08:36:50.541Z,25.00
2023-05-19T08:37:50.524Z,25.10
2023-05-19T08:38:50.568Z,26.16
2023-05-19T08:39:50.558Z,25.93
2023-05-19T08:40:50.566Z,25.43
2023-05-19T08:41:50.603Z,25.17
2023-05-19T08:42:50.602Z,25.00
2023-05-19T08:43:50.631Z,25.14
2023-05-19T08:44:50.659Z,25.92
2023-05-19T08:45:50.614Z,25.07
2023-05-19T08:46:50.626Z,25.80
2023-05-19T08:47:50.605Z,26.72
2023-05-19T08:48:50.583Z,25.46
2023-05-19T08:49:50.557Z,25.56
2023-05-19T08:50:50.554Z,25.47
2023-05-19T08:51:50.544Z,25.47
2023-05-19T08:52:52.836Z,25.00
2023-05-19T08:53:50.474Z,25.47
2023-05-19T08:54:50.445Z,25.23
2023-05-19T08:55:50.387Z,25.86
2023-05-19T08:56:50.342Z,27.32
2023-05-19T08:57:50.309Z,25.00
2023-05-19T08:58:50.254Z,26.18
2023-05-19T08:59:50.215Z,26.28
2023-05-19T09:00:50.199Z,26.07
2023-05-19T09:01:50.161Z,25.48
2023-05-19T09:02:59.892Z,25.01
2023-05-19T09:03:51.113Z,26.26
2023-05-19T09:04:50.048Z,26.76
2023-05-19T09:05:50.022Z,28.35
2023-05-19T09:06:49.956Z,31.32
2023-05-19T09:07:49.978Z,36.16
2023-05-19T09:08:49.889Z,40.44
2023-05-19T09:09:49.862Z,46.67
2023-05-19T09:10:49.792Z,46.95
2023-05-19T09:11:49.774Z,48.22
2023-05-19T09:12:49.730Z,51.75
2023-05-19T09:13:49.693Z,57.19
2023-05-19T09:14:49.657Z,65.13
2023-05-19T09:15:49.601Z,67.25
2023-05-19T09:16:49.610Z,69.72
2023-05-19T09:17:49.549Z,70.25
2023-05-19T09:18:49.503Z,70.64
2023-05-19T09:19:49.463Z,71.39
2023-05-19T09:20:49.497Z,72.21
2023-05-19T09:21:50.223Z,72.84
2023-05-19T09:22:49.530Z,73.35
2023-05-19T09:23:49.553Z,75.67
2023-05-19T09:24:49.573Z,75.87
2023-05-19T09:25:49.617Z,76.72
2023-05-19T09:26:49.613Z,77.20
2023-05-19T09:27:49.632Z,78.05
2023-05-19T09:28:49.628Z,79.91
2023-05-19T09:29:49.631Z,80.73
2023-05-19T09:30:49.649Z,81.48
2023-05-19T09:31:49.701Z,82.61
2023-05-19T09:32:49.676Z,83.58
2023-05-19T09:33:49.674Z,84.91
2023-05-19T09:34:49.691Z,85.43
2023-05-19T09:35:49.689Z,86.30
2023-05-19T09:36:49.695Z,86.68
2023-05-19T09:37:49.696Z,87.72
2023-05-19T09:38:49.694Z,88.90
2023-05-19T09:39:49.701Z,89.48
2023-05-19T09:40:49.695Z,89.98
2023-05-19T09:41:49.699Z,90.81
2023-05-19T09:42:49.648Z,90.92
2023-05-19T09:43:49.615Z,91.24
2023-05-19T09:44:49.554Z,92.00
2023-05-19T09:45:49.525Z,93.18
2023-05-19T09:46:49.471Z,94.30
2023-05-19T09:47:49.489Z,95.75
2023-05-19T09:48:49.357Z,96.13
2023-05-19T09:49:49.305Z,96.87
2023-05-19T09:50:49.272Z,97.47
2023-05-19T09:51:49.204Z,97.98
2023-05-19T09:52:49.157Z,98.30
2023-05-19T09:53:49.121Z,98.67
2023-05-19T09:54:49.086Z,98.43
2023-05-19T09:55:49.020Z,99.47
2023-05-19T09:56:48.976Z,99.80
2023-05-19T09:57:48.953Z,100.08
2023-05-19T09:58:48.962Z,100.75
2023-05-19T09:59:48.945Z,100.99
2023-05-19T10:00:48.937Z,101.89
2023-05-19T10:01:49.034Z,102.28
2023-05-19T10:02:48.932Z,102.32
2023-05-19T10:03:48.895Z,102.48
2023-05-19T10:04:48.905Z,102.88
2023-05-19T10:05:48.879Z,103.21
2023-05-19T10:06:48.880Z,103.88
2023-05-19T10:07:48.857Z,103.67
2023-05-19T10:08:48.841Z,104.13
2023-05-19T10:09:48.851Z,104.96
2023-05-19T10:10:48.813Z,104.82
2023-05-19T10:11:48.794Z,104.21
2023-05-19T10:12:48.779Z,104.52
2023-05-19T10:13:48.764Z,105.42
2023-05-19T10:14:48.761Z,105.19
2023-05-19T10:15:58.022Z,105.94
2023-05-19T10:16:49.727Z,106.00
2023-05-19T10:17:48.675Z,106.10
2023-05-19T10:18:48.604Z,106.46
2023-05-19T10:19:48.515Z,106.62
2023-05-19T10:20:48.470Z,106.82
2023-05-19T10:21:48.775Z,107.42
2023-05-19T10:22:48.367Z,108.35
2023-05-19T10:23:48.316Z,106.82
2023-05-19T10:24:48.272Z,107.99
2023-05-19T10:25:48.223Z,108.08
2023-05-19T10:26:48.175Z,108.64
2023-05-19T10:27:48.104Z,107.96
2023-05-19T10:28:48.060Z,109.10
2023-05-19T10:29:48.006Z,109.66
2023-05-19T10:30:47.965Z,109.17
2023-05-19T10:31:47.942Z,109.20
2023-05-19T10:32:47.895Z,109.35
2023-05-19T10:33:47.800Z,109.59
2023-05-19T10:34:47.745Z,109.86
2023-05-19T10:35:47.708Z,109.68
2023-05-19T10:36:47.651Z,110.02
2023-05-19T10:37:47.585Z,109.29
2023-05-19T10:38:47.524Z,110.24
2023-05-19T10:39:47.477Z,109.38
2023-05-19T10:40:47.412Z,109.95
2023-05-19T10:41:47.359Z,110.71
2023-05-19T10:42:47.295Z,110.39
2023-05-19T10:43:47.243Z,109.01
2023-05-19T10:44:47.201Z,110.24
2023-05-19T10:45:47.141Z,109.02
2023-05-19T10:46:47.127Z,110.26
2023-05-19T10:47:47.137Z,109.57
2023-05-19T10:48:46.983Z,109.14
2023-05-19T10:49:46.931Z,108.84
2023-05-19T10:50:46.881Z,109.12
2023-05-19T10:51:46.832Z,108.81
2023-05-19T10:52:46.778Z,109.73
2023-05-19T10:53:46.777Z,109.53
2023-05-19T10:54:46.735Z,108.29
2023-05-19T10:55:46.616Z,109.88
2023-05-19T10:56:46.566Z,109.91
2023-05-19T10:57:46.492Z,110.06
2023-05-19T10:58:46.465Z,109.65
2023-05-19T10:59:46.379Z,110.37
2023-05-19T11:00:46.321Z,110.11
2023-05-19T11:01:46.351Z,109.53
2023-05-19T11:02:46.265Z,108.71
2023-05-19T11:03:46.322Z,110.50
2023-05-19T11:04:46.722Z,110.66
2023-05-19T11:05:46.048Z,111.15
2023-05-19T11:06:46.010Z,109.72
2023-05-19T11:07:45.952Z,111.92
2023-05-19T11:08:45.895Z,111.36
2023-05-19T11:09:45.833Z,110.46
2023-05-19T11:10:45.793Z,110.22
2023-05-19T11:11:45.759Z,111.58
2023-05-19T11:12:46.226Z,109.89
2023-05-19T11:13:45.617Z,110.62
2023-05-19T11:14:45.561Z,111.16
2023-05-19T11:15:45.510Z,111.91
2023-05-19T11:16:45.478Z,109.49
2023-05-19T11:17:45.424Z,110.65
2023-05-19T11:18:45.330Z,111.22
2023-05-19T11:19:45.287Z,110.94
2023-05-19T11:20:45.300Z,111.16
2023-05-19T11:21:45.221Z,109.55
2023-05-19T11:22:45.199Z,110.45
2023-05-19T11:23:45.186Z,107.33
2023-05-19T11:24:45.128Z,109.83
2023-05-19T11:25:45.114Z,106.97
2023-05-19T11:26:45.060Z,107.46
2023-05-19T11:27:45.052Z,106.58
2023-05-19T11:28:45.007Z,105.98
2023-05-19T11:29:44.979Z,104.73
2023-05-19T11:30:44.941Z,104.70
2023-05-19T11:31:45.000Z,104.19
2023-05-19T11:32:44.927Z,105.48
2023-05-19T11:33:44.833Z,104.09
2023-05-19T11:34:44.829Z,104.52
2023-05-19T11:35:44.776Z,104.35
2023-05-19T11:36:44.756Z,103.57
2023-05-19T11:37:44.726Z,104.08
2023-05-19T11:38:44.679Z,102.04
2023-05-19T11:39:44.637Z,102.70
2023-05-19T11:40:44.603Z,102.87
2023-05-19T11:41:44.537Z,102.97
2023-05-19T11:42:44.502Z,103.21
2023-05-19T11:43:44.435Z,103.95
2023-05-19T11:44:44.385Z,103.23
2023-05-19T11:45:44.429Z,105.04
2023-05-19T11:46:44.335Z,105.95
2023-05-19T11:48:00.879Z,106.99
2023-05-19T11:48:45.174Z,107.05
2023-05-19T11:49:44.073Z,107.04
2023-05-19T11:50:44.152Z,106.05
2023-05-19T11:51:43.960Z,107.62
2023-05-19T11:52:43.910Z,108.03
2023-05-19T11:53:43.853Z,106.45
2023-05-19T11:54:43.792Z,105.80
2023-05-19T11:55:43.726Z,107.29
2023-05-19T11:56:43.686Z,106.42
2023-05-19T11:57:46.975Z,106.76
2023-05-19T11:58:44.554Z,106.84
2023-05-19T11:59:43.503Z,107.09
2023-05-19T12:00:43.469Z,107.25
2023-05-19T12:01:43.404Z,107.89
2023-05-19T12:02:43.433Z,109.02
2023-05-19T12:03:43.388Z,108.20
2023-05-19T12:04:43.310Z,108.97
2023-05-19T12:05:43.884Z,108.72
2023-05-19T12:06:43.224Z,108.60
2023-05-19T12:07:43.100Z,108.71
2023-05-19T12:08:43.045Z,109.02
2023-05-19T12:09:42.976Z,109.18
2023-05-19T12:10:42.923Z,109.03
2023-05-19T12:11:42.876Z,110.01
2023-05-19T12:12:42.814Z,108.76
2023-05-19T12:13:42.761Z,109.13
2023-05-19T12:14:42.698Z,108.83
2023-05-19T12:15:42.629Z,109.42
2023-05-19T12:16:42.623Z,110.12
2023-05-19T12:17:42.596Z,110.78
2023-05-19T12:18:42.522Z,110.78
2023-05-19T12:19:42.399Z,112.73
2023-05-19T12:20:42.344Z,111.65
2023-05-19T12:21:42.281Z,112.87
2023-05-19T12:22:42.222Z,112.03
2023-05-19T12:23:42.167Z,113.19
2023-05-19T12:24:42.120Z,112.18
2023-05-19T12:25:42.065Z,112.16
2023-05-19T12:26:41.998Z,113.42
2023-05-19T12:27:41.953Z,112.62
2023-05-19T12:28:41.903Z,112.97
2023-05-19T12:29:41.833Z,112.21
2023-05-19T12:30:41.776Z,111.23
2023-05-19T12:31:41.725Z,112.60
2023-05-19T12:32:41.688Z,112.85
2023-05-19T12:33:41.599Z,112.72
2023-05-19T12:34:41.562Z,111.96
2023-05-19T12:35:41.491Z,112.05
2023-05-19T12:36:41.437Z,111.72